sensor_id;sensor_type;location;lat;lon;timestamp;pressure;altitude;pressure_sealevel;temperature
70123;BMP280;57489;37.404;24.920;2022-08-19T00:03:01;99685.59;;;31.42
70123;BMP280;57489;37.404;24.920;2022-08-19T00:08:03;99690.91;;;31.49
70123;BMP280;57489;37.404;24.920;2022-08-19T00:13:04;99677.09;;;31.40
70123;BMP280;57489;37.404;24.920;2022-08-19T00:18:04;99670.16;;;31.39
70123;BMP280;57489;37.404;24.920;2022-08-19T00:23:05;99669.25;;;31.46
70123;BMP280;57489;37.404;24.920;2022-08-19T00:28:06;99673.66;;;31.36
70123;BMP280;57489;37.404;24.920;2022-08-19T00:33:06;99673.38;;;31.31
70123;BMP280;57489;37.404;24.920;2022-08-19T00:38:07;99691.97;;;31.32
70123;BMP280;57489;37.404;24.920;2022-08-19T00:43:09;99673.19;;;31.41
70123;BMP280;57489;37.404;24.920;2022-08-19T00:48:11;99668.88;;;31.24
70123;BMP280;57489;37.404;24.920;2022-08-19T00:53:14;99679.00;;;31.20
70123;BMP280;57489;37.404;24.920;2022-08-19T00:58:17;99671.69;;;31.17
70123;BMP280;57489;37.404;24.920;2022-08-19T01:03:20;99654.94;;;31.22
70123;BMP280;57489;37.404;24.920;2022-08-19T01:08:21;99647.78;;;31.12
70123;BMP280;57489;37.404;24.920;2022-08-19T01:13:26;99648.66;;;31.05
70123;BMP280;57489;37.404;24.920;2022-08-19T01:18:29;99647.78;;;31.12
70123;BMP280;57489;37.404;24.920;2022-08-19T01:23:30;99640.53;;;31.05
70123;BMP280;57489;37.404;24.920;2022-08-19T01:28:30;99633.41;;;31.15
70123;BMP280;57489;37.404;24.920;2022-08-19T01:33:31;99639.63;;;31.12
70123;BMP280;57489;37.404;24.920;2022-08-19T01:38:37;99632.00;;;31.07
70123;BMP280;57489;37.404;24.920;2022-08-19T01:43:39;99627.97;;;31.15
70123;BMP280;57489;37.404;24.920;2022-08-19T01:48:41;99623.94;;;31.23
70123;BMP280;57489;37.404;24.920;2022-08-19T01:53:42;99625.72;;;31.10
70123;BMP280;57489;37.404;24.920;2022-08-19T01:58:47;99617.06;;;31.18
70123;BMP280;57489;37.404;24.920;2022-08-19T02:03:49;99623.06;;;31.30
70123;BMP280;57489;37.404;24.920;2022-08-19T02:08:49;99618.00;;;31.08
70123;BMP280;57489;37.404;24.920;2022-08-19T02:13:50;99631.16;;;31.10
70123;BMP280;57489;37.404;24.920;2022-08-19T02:18:50;99631.25;;;31.03
70123;BMP280;57489;37.404;24.920;2022-08-19T02:23:51;99612.53;;;31.12
70123;BMP280;57489;37.404;24.920;2022-08-19T02:28:52;99625.84;;;31.03
70123;BMP280;57489;37.404;24.920;2022-08-19T02:33:54;99616.56;;;31.04
70123;BMP280;57489;37.404;24.920;2022-08-19T02:38:54;99617.38;;;31.01
70123;BMP280;57489;37.404;24.920;2022-08-19T02:43:56;99619.63;;;31.06
70123;BMP280;57489;37.404;24.920;2022-08-19T02:49:00;99621.38;;;30.92
70123;BMP280;57489;37.404;24.920;2022-08-19T02:54:01;99612.09;;;30.94
70123;BMP280;57489;37.404;24.920;2022-08-19T02:59:03;99603.59;;;30.91
70123;BMP280;57489;37.404;24.920;2022-08-19T03:04:05;99615.16;;;30.96
70123;BMP280;57489;37.404;24.920;2022-08-19T03:09:06;99615.16;;;30.96
70123;BMP280;57489;37.404;24.920;2022-08-19T03:14:08;99618.19;;;30.98
70123;BMP280;57489;37.404;24.920;2022-08-19T03:19:09;99618.31;;;30.90
70123;BMP280;57489;37.404;24.920;2022-08-19T03:24:10;99629.16;;;30.90
70123;BMP280;57489;37.404;24.920;2022-08-19T03:29:12;99628.81;;;30.88
70123;BMP280;57489;37.404;24.920;2022-08-19T03:34:15;99628.06;;;30.88
70123;BMP280;57489;37.404;24.920;2022-08-19T03:39:17;99630.59;;;30.99
70123;BMP280;57489;37.404;24.920;2022-08-19T03:44:20;99636.88;;;30.92
70123;BMP280;57489;37.404;24.920;2022-08-19T03:49:22;99639.13;;;30.97
70123;BMP280;57489;37.404;24.920;2022-08-19T03:54:24;99650.06;;;30.94
70123;BMP280;57489;37.404;24.920;2022-08-19T03:59:31;99638.47;;;30.89
70123;BMP280;57489;37.404;24.920;2022-08-19T04:04:32;99653.09;;;30.96
70123;BMP280;57489;37.404;24.920;2022-08-19T04:09:33;99664.63;;;31.00
70123;BMP280;57489;37.404;24.920;2022-08-19T04:14:34;99662.38;;;30.95
70123;BMP280;57489;37.404;24.920;2022-08-19T04:19:36;99662.34;;;30.98
70123;BMP280;57489;37.404;24.920;2022-08-19T04:24:37;99669.69;;;30.98
70123;BMP280;57489;37.404;24.920;2022-08-19T04:29:37;99666.97;;;30.98
70123;BMP280;57489;37.404;24.920;2022-08-19T04:34:38;99663.78;;;31.03
70123;BMP280;57489;37.404;24.920;2022-08-19T04:39:39;99680.78;;;31.07
70123;BMP280;57489;37.404;24.920;2022-08-19T04:44:39;99673.41;;;31.07
70123;BMP280;57489;37.404;24.920;2022-08-19T04:49:40;99691.50;;;31.14
70123;BMP280;57489;37.404;24.920;2022-08-19T04:54:40;99689.25;;;31.09
70123;BMP280;57489;37.404;24.920;2022-08-19T04:59:41;99688.41;;;31.15
70123;BMP280;57489;37.404;24.920;2022-08-19T05:04:41;99692.22;;;31.18
70123;BMP280;57489;37.404;24.920;2022-08-19T05:09:42;99689.78;;;31.24
70123;BMP280;57489;37.404;24.920;2022-08-19T05:14:43;99696.56;;;31.35
70123;BMP280;57489;37.404;24.920;2022-08-19T05:19:43;99683.63;;;31.43
70123;BMP280;57489;37.404;24.920;2022-08-19T05:24:44;99684.75;;;31.45
70123;BMP280;57489;37.404;24.920;2022-08-19T05:29:44;99686.84;;;31.58
70123;BMP280;57489;37.404;24.920;2022-08-19T05:34:45;99699.78;;;31.70
70123;BMP280;57489;37.404;24.920;2022-08-19T05:39:45;99692.22;;;31.81
70123;BMP280;57489;37.404;24.920;2022-08-19T05:44:46;99692.44;;;31.90
70123;BMP280;57489;37.404;24.920;2022-08-19T05:49:47;99699.47;;;31.88
70123;BMP280;57489;37.404;24.920;2022-08-19T05:54:48;99707.91;;;31.90
70123;BMP280;57489;37.404;24.920;2022-08-19T05:59:49;99691.16;;;32.15
70123;BMP280;57489;37.404;24.920;2022-08-19T06:04:50;99700.16;;;32.28
70123;BMP280;57489;37.404;24.920;2022-08-19T06:09:51;99704.06;;;32.27
70123;BMP280;57489;37.404;24.920;2022-08-19T06:14:51;99711.44;;;32.26
70123;BMP280;57489;37.404;24.920;2022-08-19T06:19:52;99718.88;;;32.42
70123;BMP280;57489;37.404;24.920;2022-08-19T06:24:52;99723.97;;;32.56
70123;BMP280;57489;37.404;24.920;2022-08-19T06:29:53;99731.97;;;32.63
70123;BMP280;57489;37.404;24.920;2022-08-19T06:34:54;99732.97;;;32.53
70123;BMP280;57489;37.404;24.920;2022-08-19T06:39:54;99745.22;;;32.78
70123;BMP280;57489;37.404;24.920;2022-08-19T06:44:55;99736.91;;;32.85
70123;BMP280;57489;37.404;24.920;2022-08-19T06:49:56;99745.91;;;32.98
70123;BMP280;57489;37.404;24.920;2022-08-19T06:54:57;99764.66;;;33.09
70123;BMP280;57489;37.404;24.920;2022-08-19T06:59:58;99757.41;;;33.34
70123;BMP280;57489;37.404;24.920;2022-08-19T07:04:58;99757.97;;;33.42
70123;BMP280;57489;37.404;24.920;2022-08-19T07:09:59;99761.53;;;33.55
70123;BMP280;57489;37.404;24.920;2022-08-19T07:14:59;99754.69;;;33.76
70123;BMP280;57489;37.404;24.920;2022-08-19T07:20:01;99771.41;;;33.78
70123;BMP280;57489;37.404;24.920;2022-08-19T07:25:02;99774.13;;;33.78
70123;BMP280;57489;37.404;24.920;2022-08-19T07:30:03;99775.34;;;33.90
70123;BMP280;57489;37.404;24.920;2022-08-19T07:35:04;99772.84;;;33.95
70123;BMP280;57489;37.404;24.920;2022-08-19T07:40:06;99772.63;;;34.03
70123;BMP280;57489;37.404;24.920;2022-08-19T07:45:07;99773.22;;;34.10
70123;BMP280;57489;37.404;24.920;2022-08-19T07:50:09;99774.31;;;34.38
70123;BMP280;57489;37.404;24.920;2022-08-19T07:55:11;99780.28;;;34.58
70123;BMP280;57489;37.404;24.920;2022-08-19T08:00:12;99768.31;;;34.18
70123;BMP280;57489;37.404;24.920;2022-08-19T08:05:12;99772.13;;;34.33
70123;BMP280;57489;37.404;24.920;2022-08-19T08:10:13;99773.44;;;34.41
70123;BMP280;57489;37.404;24.920;2022-08-19T08:15:15;99763.09;;;34.36
70123;BMP280;57489;37.404;24.920;2022-08-19T08:20:16;99759.16;;;34.62
70123;BMP280;57489;37.404;24.920;2022-08-19T08:25:20;99766.75;;;34.68
70123;BMP280;57489;37.404;24.920;2022-08-19T08:30:23;99765.69;;;34.65
70123;BMP280;57489;37.404;24.920;2022-08-19T08:35:24;99768.09;;;34.25
70123;BMP280;57489;37.404;24.920;2022-08-19T08:40:44;99774.56;;;33.89
70123;BMP280;57489;37.404;24.920;2022-08-19T08:45:52;99763.63;;;34.06
70123;BMP280;57489;37.404;24.920;2022-08-19T08:50:56;99764.16;;;34.77
70123;BMP280;57489;37.404;24.920;2022-08-19T08:55:58;99769.84;;;34.57
70123;BMP280;57489;37.404;24.920;2022-08-19T09:01:02;99766.59;;;34.49
70123;BMP280;57489;37.404;24.920;2022-08-19T09:06:07;99756.00;;;34.39
70123;BMP280;57489;37.404;24.920;2022-08-19T09:16:36;99766.06;;;34.42
70123;BMP280;57489;37.404;24.920;2022-08-19T09:21:37;99761.88;;;34.24
70123;BMP280;57489;37.404;24.920;2022-08-19T09:26:37;99769.69;;;35.20
70123;BMP280;57489;37.404;24.920;2022-08-19T09:31:38;99764.91;;;35.68
70123;BMP280;57489;37.404;24.920;2022-08-19T09:36:38;99774.94;;;35.71
70123;BMP280;57489;37.404;24.920;2022-08-19T09:41:39;99759.50;;;35.12
70123;BMP280;57489;37.404;24.920;2022-08-19T09:46:42;99769.19;;;35.13
70123;BMP280;57489;37.404;24.920;2022-08-19T09:51:42;99752.97;;;35.75
70123;BMP280;57489;37.404;24.920;2022-08-19T09:56:43;99749.88;;;35.95
70123;BMP280;57489;37.404;24.920;2022-08-19T10:01:44;99747.19;;;36.04
70123;BMP280;57489;37.404;24.920;2022-08-19T10:06:44;99746.81;;;35.62
70123;BMP280;57489;37.404;24.920;2022-08-19T10:11:45;99745.28;;;35.91
70123;BMP280;57489;37.404;24.920;2022-08-19T10:16:46;99748.00;;;35.82
70123;BMP280;57489;37.404;24.920;2022-08-19T10:21:48;99733.72;;;35.78
70123;BMP280;57489;37.404;24.920;2022-08-19T10:26:48;99744.63;;;36.09
70123;BMP280;57489;37.404;24.920;2022-08-19T10:31:49;99742.00;;;35.97
70123;BMP280;57489;37.404;24.920;2022-08-19T10:36:49;99741.69;;;35.95
70123;BMP280;57489;37.404;24.920;2022-08-19T10:41:50;99743.53;;;35.98
70123;BMP280;57489;37.404;24.920;2022-08-19T10:46:51;99742.31;;;36.08
70123;BMP280;57489;37.404;24.920;2022-08-19T10:51:51;99749.94;;;36.13
70123;BMP280;57489;37.404;24.920;2022-08-19T10:56:51;99737.94;;;36.10
70123;BMP280;57489;37.404;24.920;2022-08-19T11:01:52;99741.22;;;36.36
70123;BMP280;57489;37.404;24.920;2022-08-19T11:06:53;99739.16;;;36.09
70123;BMP280;57489;37.404;24.920;2022-08-19T11:11:53;99744.53;;;35.91
70123;BMP280;57489;37.404;24.920;2022-08-19T11:16:56;99741.84;;;36.00
70123;BMP280;57489;37.404;24.920;2022-08-19T11:21:58;99747.09;;;35.85
70123;BMP280;57489;37.404;24.920;2022-08-19T11:27:06;99744.38;;;35.85
70123;BMP280;57489;37.404;24.920;2022-08-19T11:32:09;99744.56;;;35.69
70123;BMP280;57489;37.404;24.920;2022-08-19T11:37:10;99748.22;;;35.97
70123;BMP280;57489;37.404;24.920;2022-08-19T11:42:10;99745.59;;;35.84
70123;BMP280;57489;37.404;24.920;2022-08-19T11:47:11;99745.09;;;35.55
70123;BMP280;57489;37.404;24.920;2022-08-19T11:52:11;99737.19;;;35.79
70123;BMP280;57489;37.404;24.920;2022-08-19T11:57:12;99736.22;;;35.95
70123;BMP280;57489;37.404;24.920;2022-08-19T12:02:14;99730.78;;;36.04
70123;BMP280;57489;37.404;24.920;2022-08-19T12:07:15;99736.53;;;35.97
70123;BMP280;57489;37.404;24.920;2022-08-19T12:12:15;99733.81;;;35.44
70123;BMP280;57489;37.404;24.920;2022-08-19T12:17:16;99721.41;;;36.23
70123;BMP280;57489;37.404;24.920;2022-08-19T12:22:18;99726.94;;;35.61
70123;BMP280;57489;37.404;24.920;2022-08-19T12:27:18;99725.78;;;35.71
70123;BMP280;57489;37.404;24.920;2022-08-19T12:32:19;99734.22;;;35.42
70123;BMP280;57489;37.404;24.920;2022-08-19T12:37:20;99719.16;;;35.59
70123;BMP280;57489;37.404;24.920;2022-08-19T12:42:21;99722.66;;;35.29
70123;BMP280;57489;37.404;24.920;2022-08-19T12:47:21;99714.63;;;35.35
70123;BMP280;57489;37.404;24.920;2022-08-19T12:52:24;99724.72;;;35.47
70123;BMP280;57489;37.404;24.920;2022-08-19T12:57:26;99711.72;;;35.51
70123;BMP280;57489;37.404;24.920;2022-08-19T13:02:27;99718.34;;;35.06
70123;BMP280;57489;37.404;24.920;2022-08-19T13:07:28;99713.47;;;35.45
70123;BMP280;57489;37.404;24.920;2022-08-19T13:12:29;99712.19;;;35.80
70123;BMP280;57489;37.404;24.920;2022-08-19T13:17:30;99706.91;;;35.64
70123;BMP280;57489;37.404;24.920;2022-08-19T13:22:30;99704.44;;;35.57
70123;BMP280;57489;37.404;24.920;2022-08-19T13:27:31;99697.34;;;35.90
70123;BMP280;57489;37.404;24.920;2022-08-19T13:32:32;99702.56;;;35.45
70123;BMP280;57489;37.404;24.920;2022-08-19T13:37:32;99708.00;;;35.45
70123;BMP280;57489;37.404;24.920;2022-08-19T13:42:33;99703.84;;;35.53
70123;BMP280;57489;37.404;24.920;2022-08-19T13:47:34;99701.28;;;35.58
70123;BMP280;57489;37.404;24.920;2022-08-19T13:52:35;99693.38;;;35.30
70123;BMP280;57489;37.404;24.920;2022-08-19T13:57:36;99687.09;;;35.42
70123;BMP280;57489;37.404;24.920;2022-08-19T14:02:38;99683.84;;;35.34
70123;BMP280;57489;37.404;24.920;2022-08-19T14:07:38;99687.81;;;35.42
70123;BMP280;57489;37.404;24.920;2022-08-19T14:12:39;99691.38;;;35.08
70123;BMP280;57489;37.404;24.920;2022-08-19T14:17:42;99695.25;;;34.98
70123;BMP280;57489;37.404;24.920;2022-08-19T14:22:44;99686.81;;;35.05
70123;BMP280;57489;37.404;24.920;2022-08-19T14:27:46;99691.63;;;35.01
70123;BMP280;57489;37.404;24.920;2022-08-19T14:32:46;99685.34;;;34.57
70123;BMP280;57489;37.404;24.920;2022-08-19T14:37:47;99690.94;;;34.88
70123;BMP280;57489;37.404;24.920;2022-08-19T14:42:48;99691.00;;;34.97
70123;BMP280;57489;37.404;24.920;2022-08-19T14:47:50;99689.47;;;34.96
70123;BMP280;57489;37.404;24.920;2022-08-19T14:52:58;99691.25;;;34.90
70123;BMP280;57489;37.404;24.920;2022-08-19T14:57:59;99678.56;;;35.40
70123;BMP280;57489;37.404;24.920;2022-08-19T15:03:00;99673.09;;;34.96
70123;BMP280;57489;37.404;24.920;2022-08-19T15:08:04;99673.69;;;34.91
70123;BMP280;57489;37.404;24.920;2022-08-19T15:13:04;99668.16;;;34.82
70123;BMP280;57489;37.404;24.920;2022-08-19T15:18:05;99677.31;;;34.75
70123;BMP280;57489;37.404;24.920;2022-08-19T15:23:06;99671.97;;;34.84
70123;BMP280;57489;37.404;24.920;2022-08-19T15:28:07;99671.19;;;34.49
70123;BMP280;57489;37.404;24.920;2022-08-19T15:33:07;99670.63;;;34.54
70123;BMP280;57489;37.404;24.920;2022-08-19T15:38:08;99664.09;;;34.39
70123;BMP280;57489;37.404;24.920;2022-08-19T15:43:09;99666.53;;;34.37
70123;BMP280;57489;37.404;24.920;2022-08-19T15:48:09;99655.84;;;34.30
70123;BMP280;57489;37.404;24.920;2022-08-19T15:53:10;99655.72;;;34.33
70123;BMP280;57489;37.404;24.920;2022-08-19T15:58:13;99649.31;;;34.27
70123;BMP280;57489;37.404;24.920;2022-08-19T16:03:14;99649.09;;;34.35
70123;BMP280;57489;37.404;24.920;2022-08-19T16:08:14;99641.13;;;34.27
70123;BMP280;57489;37.404;24.920;2022-08-19T16:13:15;99649.63;;;34.17
70123;BMP280;57489;37.404;24.920;2022-08-19T16:18:15;99643.22;;;34.11
70123;BMP280;57489;37.404;24.920;2022-08-19T16:23:18;99645.94;;;34.11
70123;BMP280;57489;37.404;24.920;2022-08-19T16:28:18;99645.69;;;34.05
70123;BMP280;57489;37.404;24.920;2022-08-19T16:33:19;99646.81;;;33.95
70123;BMP280;57489;37.404;24.920;2022-08-19T16:38:19;99657.59;;;33.86
70123;BMP280;57489;37.404;24.920;2022-08-19T16:43:20;99649.53;;;33.82
70123;BMP280;57489;37.404;24.920;2022-08-19T16:48:23;99657.47;;;33.77
70123;BMP280;57489;37.404;24.920;2022-08-19T16:53:25;99659.94;;;33.71
70123;BMP280;57489;37.404;24.920;2022-08-19T16:58:27;99671.72;;;33.68
70123;BMP280;57489;37.404;24.920;2022-08-19T17:03:28;99668.78;;;33.62
70123;BMP280;57489;37.404;24.920;2022-08-19T17:08:32;99676.06;;;33.53
70123;BMP280;57489;37.404;24.920;2022-08-19T17:13:33;99678.31;;;33.54
70123;BMP280;57489;37.404;24.920;2022-08-19T17:18:33;99684.41;;;33.46
70123;BMP280;57489;37.404;24.920;2022-08-19T17:23:34;99683.41;;;33.40
70123;BMP280;57489;37.404;24.920;2022-08-19T17:28:34;99692.97;;;33.31
70123;BMP280;57489;37.404;24.920;2022-08-19T17:33:35;99686.84;;;33.27
70123;BMP280;57489;37.404;24.920;2022-08-19T17:38:36;99694.66;;;33.25
70123;BMP280;57489;37.404;24.920;2022-08-19T17:43:37;99692.81;;;33.22
70123;BMP280;57489;37.404;24.920;2022-08-19T17:48:37;99698.63;;;33.08
70123;BMP280;57489;37.404;24.920;2022-08-19T17:53:38;99707.84;;;32.98
70123;BMP280;57489;37.404;24.920;2022-08-19T17:58:39;99702.53;;;32.91
70123;BMP280;57489;37.404;24.920;2022-08-19T18:03:41;99711.06;;;32.77
70123;BMP280;57489;37.404;24.920;2022-08-19T18:08:42;99715.97;;;32.82
70123;BMP280;57489;37.404;24.920;2022-08-19T18:13:43;99716.41;;;32.64
70123;BMP280;57489;37.404;24.920;2022-08-19T18:18:44;99724.97;;;32.62
70123;BMP280;57489;37.404;24.920;2022-08-19T18:23:44;99724.66;;;32.60
70123;BMP280;57489;37.404;24.920;2022-08-19T18:28:45;99732.19;;;32.53
70123;BMP280;57489;37.404;24.920;2022-08-19T18:33:45;99725.78;;;32.63
70123;BMP280;57489;37.404;24.920;2022-08-19T18:38:46;99735.84;;;32.62
70123;BMP280;57489;37.404;24.920;2022-08-19T18:43:47;99740.44;;;32.82
70123;BMP280;57489;37.404;24.920;2022-08-19T18:48:47;99738.41;;;32.86
70123;BMP280;57489;37.404;24.920;2022-08-19T18:53:49;99746.16;;;32.87
70123;BMP280;57489;37.404;24.920;2022-08-19T18:58:49;99746.75;;;32.95
70123;BMP280;57489;37.404;24.920;2022-08-19T19:03:51;99750.81;;;32.87
70123;BMP280;57489;37.404;24.920;2022-08-19T19:08:52;99749.63;;;32.88
70123;BMP280;57489;37.404;24.920;2022-08-19T19:13:53;99752.94;;;32.95
70123;BMP280;57489;37.404;24.920;2022-08-19T19:18:54;99757.50;;;32.98
70123;BMP280;57489;37.404;24.920;2022-08-19T19:23:55;99745.47;;;32.83
70123;BMP280;57489;37.404;24.920;2022-08-19T19:28:55;99738.41;;;32.86
70123;BMP280;57489;37.404;24.920;2022-08-19T19:33:56;99744.56;;;31.38
70123;BMP280;57489;37.404;24.920;2022-08-19T19:38:58;99757.63;;;30.39
70123;BMP280;57489;37.404;24.920;2022-08-19T19:43:58;99758.50;;;29.57
70123;BMP280;57489;37.404;24.920;2022-08-19T19:48:59;99756.28;;;29.45
70123;BMP280;57489;37.404;24.920;2022-08-19T19:54:00;99756.38;;;29.34
70123;BMP280;57489;37.404;24.920;2022-08-19T19:59:01;99762.34;;;29.11
70123;BMP280;57489;37.404;24.920;2022-08-19T20:04:01;99754.66;;;28.99
70123;BMP280;57489;37.404;24.920;2022-08-19T20:09:02;99758.16;;;29.00
70123;BMP280;57489;37.404;24.920;2022-08-19T20:14:07;99752.75;;;28.96
70123;BMP280;57489;37.404;24.920;2022-08-19T20:19:09;99754.44;;;28.76
70123;BMP280;57489;37.404;24.920;2022-08-19T20:24:13;99756.75;;;28.74
70123;BMP280;57489;37.404;24.920;2022-08-19T20:29:16;99762.88;;;28.85
70123;BMP280;57489;37.404;24.920;2022-08-19T20:34:17;99752.25;;;28.49
70123;BMP280;57489;37.404;24.920;2022-08-19T20:39:18;99759.63;;;28.38
70123;BMP280;57489;37.404;24.920;2022-08-19T20:44:19;99768.50;;;28.35
70123;BMP280;57489;37.404;24.920;2022-08-19T20:49:19;99758.50;;;28.32
70123;BMP280;57489;37.404;24.920;2022-08-19T20:54:20;99758.88;;;28.20
70123;BMP280;57489;37.404;24.920;2022-08-19T20:59:21;99763.94;;;27.97
70123;BMP280;57489;37.404;24.920;2022-08-19T21:04:22;99755.44;;;28.16
70123;BMP280;57489;37.404;24.920;2022-08-19T21:09:23;99755.78;;;28.32
70123;BMP280;57489;37.404;24.920;2022-08-19T21:14:24;99752.34;;;28.25
70123;BMP280;57489;37.404;24.920;2022-08-19T21:19:25;99752.75;;;28.02
70123;BMP280;57489;37.404;24.920;2022-08-19T21:24:25;99740.06;;;27.91
70123;BMP280;57489;37.404;24.920;2022-08-19T21:29:26;99746.63;;;27.98
70123;BMP280;57489;37.404;24.920;2022-08-19T21:34:26;99750.88;;;27.81
70123;BMP280;57489;37.404;24.920;2022-08-19T21:39:27;99736.59;;;27.98
70123;BMP280;57489;37.404;24.920;2022-08-19T21:44:28;99743.53;;;27.85
70123;BMP280;57489;37.404;24.920;2022-08-19T21:49:28;99738.47;;;28.05
70123;BMP280;57489;37.404;24.920;2022-08-19T21:54:30;99738.78;;;29.08
70123;BMP280;57489;37.404;24.920;2022-08-19T21:59:31;99726.97;;;30.76
70123;BMP280;57489;37.404;24.920;2022-08-19T22:04:32;99729.56;;;31.07
70123;BMP280;57489;37.404;24.920;2022-08-19T22:09:33;99730.00;;;31.29
70123;BMP280;57489;37.404;24.920;2022-08-19T22:14:35;99732.03;;;31.44
70123;BMP280;57489;37.404;24.920;2022-08-19T22:19:35;99723.44;;;31.49
70123;BMP280;57489;37.404;24.920;2022-08-19T22:24:36;99720.00;;;31.22
70123;BMP280;57489;37.404;24.920;2022-08-19T22:29:36;99712.84;;;31.35
70123;BMP280;57489;37.404;24.920;2022-08-19T22:34:37;99713.31;;;31.30
70123;BMP280;57489;37.404;24.920;2022-08-19T22:39:38;99714.31;;;31.16
70123;BMP280;57489;37.404;24.920;2022-08-19T22:44:38;99701.03;;;31.22
70123;BMP280;57489;37.404;24.920;2022-08-19T22:49:39;99704.91;;;31.44
70123;BMP280;57489;37.404;24.920;2022-08-19T22:54:39;99708.59;;;31.34
70123;BMP280;57489;37.404;24.920;2022-08-19T22:59:40;99717.91;;;31.10
70123;BMP280;57489;37.404;24.920;2022-08-19T23:04:41;99713.19;;;31.14
70123;BMP280;57489;37.404;24.920;2022-08-19T23:09:41;99705.53;;;31.09
70123;BMP280;57489;37.404;24.920;2022-08-19T23:14:42;99699.63;;;31.14
70123;BMP280;57489;37.404;24.920;2022-08-19T23:19:43;99696.31;;;31.03
70123;BMP280;57489;37.404;24.920;2022-08-19T23:24:43;99683.25;;;30.98
70123;BMP280;57489;37.404;24.920;2022-08-19T23:29:44;99690.22;;;30.99
70123;BMP280;57489;37.404;24.920;2022-08-19T23:34:45;99678.03;;;31.10
70123;BMP280;57489;37.404;24.920;2022-08-19T23:39:45;99677.72;;;31.05
70123;BMP280;57489;37.404;24.920;2022-08-19T23:44:46;99688.16;;;31.30
70123;BMP280;57489;37.404;24.920;2022-08-19T23:49:46;99679.72;;;31.24
70123;BMP280;57489;37.404;24.920;2022-08-19T23:54:47;99687.38;;;31.29
70123;BMP280;57489;37.404;24.920;2022-08-19T23:59:47;99680.78;;;31.07
